Time;durP1;ratioP1;P1;durP2;ratioP2;P2;SDS_P1;SDS_P2;PMS_P1;PMS_P2;Temp;Humidity;BMP_temperature;BMP_pressure;BME280_temperature;BME280_humidity;BME280_pressure;Samples;Min_cycle;Max_cycle;Signal;HPM_P1;HPM_P2
2021/03/23 00:01:18;;;;;;;4.80;1.00;;;17.60;44.10;;;;;;5018585;28;20239;-78
2021/03/23 00:04:05;;;;;;;3.88;0.90;;;17.50;44.10;;;;;;5001157;28;20158;-80
2021/03/23 00:06:40;;;;;;;2.10;0.80;;;17.60;44.10;;;;;;5000605;28;20246;-78
2021/03/23 00:09:08;;;;;;;2.45;0.88;;;17.60;44.00;;;;;;5000573;28;20670;-80
2021/03/23 00:11:39;;;;;;;4.88;1.15;;;17.50;44.10;;;;;;4984419;28;20168;-79
2021/03/23 00:14:07;;;;;;;4.18;1.17;;;17.50;44.10;;;;;;4984258;28;20185;-79
2021/03/23 00:16:35;;;;;;;2.85;0.80;;;17.50;44.10;;;;;;5018543;28;20246;-79
2021/03/23 00:19:03;;;;;;;2.83;0.75;;;17.50;44.20;;;;;;5000220;28;20206;-78
2021/03/23 00:21:35;;;;;;;2.95;1.10;;;17.50;44.30;;;;;;5000187;28;20167;-79
2021/03/23 00:24:03;;;;;;;3.42;0.88;;;17.50;44.20;;;;;;5000873;28;20156;-78
2021/03/23 00:26:35;;;;;;;3.65;0.85;;;17.50;44.20;;;;;;5000125;28;20156;-79
2021/03/23 00:29:02;;;;;;;2.50;1.00;;;17.50;44.20;;;;;;4984148;28;20176;-79
2021/03/23 00:31:30;;;;;;;1.95;1.00;;;17.50;44.20;;;;;;5000398;28;20237;-79
2021/03/23 00:34:00;;;;;;;2.35;0.80;;;17.50;44.20;;;;;;4984655;28;20171;-79
2021/03/23 00:36:30;;;;;;;2.63;0.95;;;17.50;44.30;;;;;;5018567;28;20271;-80
2021/03/23 00:38:56;;;;;;;2.67;0.98;;;17.50;44.30;;;;;;5018259;28;20180;-78
2021/03/23 00:41:23;;;;;;;3.58;1.20;;;17.50;44.30;;;;;;5000726;28;20148;-79
2021/03/23 00:43:49;;;;;;;2.85;0.90;;;17.50;44.30;;;;;;4984221;28;20661;-79
2021/03/23 00:46:15;;;;;;;1.98;0.95;;;17.50;44.20;;;;;;5000528;28;20164;-79
2021/03/23 00:48:41;;;;;;;3.67;0.95;;;17.50;44.30;;;;;;5000300;28;20159;-79
2021/03/23 00:51:06;;;;;;;2.10;0.82;;;17.50;44.40;;;;;;4984182;28;20177;-80
2021/03/23 00:53:36;;;;;;;3.90;1.00;;;17.40;44.30;;;;;;5000821;28;20160;-80
2021/03/23 00:56:02;;;;;;;3.45;0.60;;;17.40;44.40;;;;;;5001638;28;20583;-80
2021/03/23 00:58:29;;;;;;;5.03;1.10;;;17.40;44.40;;;;;;5021123;28;20163;-79
2021/03/23 01:00:56;;;;;;;1.20;0.80;;;17.40;44.50;;;;;;5021662;28;20156;-79
2021/03/23 01:03:31;;;;;;;1.98;0.90;;;17.40;44.40;;;;;;5003818;28;20206;-78
2021/03/23 01:05:58;;;;;;;1.30;0.80;;;17.40;44.50;;;;;;5021041;28;20174;-78
2021/03/23 01:08:24;;;;;;;2.53;0.70;;;17.40;44.50;;;;;;5021670;28;20156;-78
2021/03/23 01:10:50;;;;;;;2.03;0.98;;;17.40;44.40;;;;;;5004268;28;20166;-79
2021/03/23 01:13:25;;;;;;;2.13;0.80;;;17.40;44.50;;;;;;5021058;28;20155;-78
2021/03/23 01:15:50;;;;;;;3.17;1.10;;;17.40;44.50;;;;;;4986823;28;20193;-79
2021/03/23 01:18:17;;;;;;;1.67;0.88;;;17.40;44.40;;;;;;4987211;28;20197;-78
2021/03/23 01:20:43;;;;;;;3.83;1.20;;;17.40;44.50;;;;;;4986765;28;20159;-78
2021/03/23 01:23:12;;;;;;;3.17;1.00;;;17.40;44.50;;;;;;5021425;28;20178;-79
2021/03/23 01:25:44;;;;;;;1.83;0.73;;;17.40;44.60;;;;;;4986978;28;20581;-79
2021/03/23 01:28:10;;;;;;;3.83;1.00;;;17.40;44.60;;;;;;5004046;28;20183;-80
2021/03/23 01:30:37;;;;;;;2.05;0.80;;;17.30;44.40;;;;;;5003402;28;20155;-79
2021/03/23 01:33:04;;;;;;;4.78;1.00;;;17.40;44.50;;;;;;4986986;28;20217;-78
2021/03/23 01:35:38;;;;;;;3.85;0.80;;;17.40;44.50;;;;;;5002665;28;20183;-78
2021/03/23 01:38:05;;;;;;;2.67;0.90;;;17.40;44.50;;;;;;5002991;28;20151;-79
2021/03/23 01:40:34;;;;;;;2.70;1.00;;;17.40;44.40;;;;;;5002664;28;20214;-78
2021/03/23 01:43:02;;;;;;;4.47;0.80;;;17.40;44.50;;;;;;4987118;28;20164;-80
2021/03/23 01:45:35;;;;;;;3.05;0.90;;;17.40;44.50;;;;;;4987440;28;20159;-79
2021/03/23 01:48:14;;;;;;;2.17;0.90;;;17.40;44.50;;;;;;5003042;28;20147;-80
2021/03/23 01:50:55;;;;;;;1.77;0.80;;;17.40;44.50;;;;;;5020969;28;20171;-78
2021/03/23 01:53:24;;;;;;;3.22;0.70;;;17.30;44.40;;;;;;5002696;28;20649;-79
2021/03/23 01:55:51;;;;;;;4.07;0.80;;;17.40;44.50;;;;;;5020132;28;20162;-79
2021/03/23 01:58:17;;;;;;;1.35;0.68;;;17.40;44.50;;;;;;4986253;28;20175;-78
2021/03/23 02:00:49;;;;;;;3.00;0.80;;;17.40;45.10;;;;;;5003089;28;20159;-78
2021/03/23 02:03:16;;;;;;;2.63;0.70;;;17.40;44.50;;;;;;4986169;28;20258;-78
2021/03/23 02:05:42;;;;;;;3.42;0.93;;;17.40;44.50;;;;;;4986151;28;20159;-79
2021/03/23 02:08:09;;;;;;;3.97;0.90;;;17.30;44.50;;;;;;5001234;28;20626;-79
2021/03/23 02:10:35;;;;;;;1.92;0.80;;;17.30;44.50;;;;;;5002382;28;20152;-81
2021/03/23 02:13:02;;;;;;;2.28;0.88;;;17.30;44.50;;;;;;4986010;28;20244;-78
2021/03/23 02:15:28;;;;;;;2.75;0.70;;;17.30;44.50;;;;;;5002379;28;20640;-79
2021/03/23 02:18:17;;;;;;;3.10;0.95;;;17.30;44.40;;;;;;5002509;28;20227;-80
2021/03/23 02:20:58;;;;;;;1.70;0.80;;;17.30;44.60;;;;;;5002222;28;20226;-79
2021/03/23 02:23:26;;;;;;;3.25;0.88;;;17.30;44.60;;;;;;5002229;28;20195;-78
2021/03/23 02:25:55;;;;;;;1.48;0.82;;;17.30;44.60;;;;;;5002588;28;20147;-78
2021/03/23 02:28:21;;;;;;;2.35;1.00;;;17.30;44.50;;;;;;5002467;28;20168;-78
2021/03/23 02:30:49;;;;;;;2.75;1.00;;;17.30;44.60;;;;;;5019602;28;20227;-78
2021/03/23 02:33:18;;;;;;;3.85;0.90;;;17.30;44.60;;;;;;5002338;28;20155;-78
2021/03/23 02:35:44;;;;;;;2.50;0.90;;;17.30;44.70;;;;;;5019529;28;20148;-80
2021/03/23 02:38:12;;;;;;;2.95;0.80;;;17.30;44.70;;;;;;5001471;28;20162;-79
2021/03/23 02:40:40;;;;;;;2.00;0.77;;;17.30;44.70;;;;;;5001469;28;20159;-79
2021/03/23 02:43:07;;;;;;;2.97;0.90;;;17.30;44.60;;;;;;4984819;28;20175;-79
2021/03/23 02:45:33;;;;;;;2.00;1.00;;;17.30;44.70;;;;;;5001741;28;20159;-78
2021/03/23 02:47:58;;;;;;;1.83;0.77;;;17.30;44.70;;;;;;5019636;28;20158;-79
2021/03/23 02:50:24;;;;;;;2.47;0.88;;;17.30;44.70;;;;;;5019661;28;20159;-79
2021/03/23 02:52:50;;;;;;;3.63;0.88;;;17.30;44.70;;;;;;5001551;28;20530;-79
2021/03/23 02:55:16;;;;;;;2.78;0.70;;;17.30;44.60;;;;;;5001368;28;20347;-79
2021/03/23 02:57:42;;;;;;;3.08;1.00;;;17.30;44.70;;;;;;5001823;28;20160;-78
2021/03/23 03:00:10;;;;;;;2.22;0.82;;;17.30;44.80;;;;;;5000700;28;20198;-78
2021/03/23 03:02:36;;;;;;;3.13;0.90;;;17.30;44.70;;;;;;5001425;28;20156;-79
2021/03/23 03:05:05;;;;;;;2.40;0.80;;;17.30;44.80;;;;;;5000955;28;20174;-79
2021/03/23 03:07:31;;;;;;;2.35;1.00;;;17.30;44.70;;;;;;5019009;28;20163;-78
2021/03/23 03:09:57;;;;;;;3.13;0.80;;;17.20;44.70;;;;;;5001176;28;20539;-79
2021/03/23 03:12:23;;;;;;;1.38;0.80;;;17.20;44.70;;;;;;5000935;28;20162;-78
2021/03/23 03:14:48;;;;;;;2.30;1.00;;;17.20;44.90;;;;;;5018734;28;20167;-79
2021/03/23 03:17:15;;;;;;;2.30;0.80;;;17.20;44.80;;;;;;4984400;28;20318;-80
2021/03/23 03:19:41;;;;;;;0.93;0.75;;;17.20;44.80;;;;;;5000294;28;20188;-79
2021/03/23 03:22:07;;;;;;;2.05;0.60;;;17.20;44.90;;;;;;5000122;28;20630;-78
2021/03/23 03:24:34;;;;;;;2.03;0.73;;;17.20;44.80;;;;;;5018201;28;20160;-78
2021/03/23 03:27:00;;;;;;;2.03;0.80;;;17.20;44.80;;;;;;4983665;28;20164;-80
2021/03/23 03:29:26;;;;;;;1.25;0.77;;;17.20;44.80;;;;;;4999547;28;20237;-79
2021/03/23 03:31:56;;;;;;;1.83;0.88;;;17.30;44.80;;;;;;5000290;28;20168;-80
2021/03/23 03:34:23;;;;;;;1.63;0.70;;;17.20;44.80;;;;;;5000289;28;20167;-78
2021/03/23 03:36:54;;;;;;;2.47;0.98;;;17.20;44.80;;;;;;5000336;28;20163;-79
2021/03/23 03:39:20;;;;;;;1.83;0.90;;;17.20;44.90;;;;;;5000538;28;20203;-78
2021/03/23 03:41:47;;;;;;;1.92;0.77;;;17.20;44.80;;;;;;5000127;28;20385;-77
2021/03/23 03:44:13;;;;;;;1.85;0.70;;;17.20;45.60;;;;;;4983821;28;20170;-79
2021/03/23 03:46:38;;;;;;;1.55;0.70;;;17.20;44.90;;;;;;4999413;28;20187;-79
2021/03/23 03:49:04;;;;;;;1.73;0.80;;;17.20;44.80;;;;;;4999800;28;20163;-79
2021/03/23 03:51:29;;;;;;;2.30;0.70;;;17.20;44.80;;;;;;5017139;28;20749;-80
2021/03/23 03:53:56;;;;;;;1.50;0.80;;;17.20;44.80;;;;;;4983900;28;20567;-79
2021/03/23 03:56:22;;;;;;;1.58;0.80;;;17.20;44.80;;;;;;4999602;28;20159;-78
2021/03/23 03:58:48;;;;;;;2.03;0.80;;;17.20;44.90;;;;;;4999573;28;20233;-78
2021/03/23 04:01:14;;;;;;;2.70;0.90;;;17.20;44.90;;;;;;4983953;28;20167;-78
2021/03/23 04:03:43;;;;;;;1.45;0.80;;;17.20;44.70;;;;;;4983740;28;20575;-79
2021/03/23 04:06:18;;;;;;;1.35;0.75;;;17.20;44.90;;;;;;5018097;28;20164;-79
2021/03/23 04:08:52;;;;;;;1.52;0.70;;;17.20;44.90;;;;;;4999319;28;20162;-79
2021/03/23 04:11:19;;;;;;;2.67;0.82;;;17.20;44.80;;;;;;4999617;28;20164;-79
2021/03/23 04:13:44;;;;;;;2.38;0.80;;;17.20;44.90;;;;;;5000220;28;20159;-78
2021/03/23 04:16:10;;;;;;;1.70;0.70;;;17.20;44.90;;;;;;5017467;28;20223;-79
2021/03/23 04:18:36;;;;;;;1.70;0.73;;;17.20;44.90;;;;;;4983191;28;20191;-79
2021/03/23 04:21:04;;;;;;;2.00;0.98;;;17.20;44.90;;;;;;5000159;28;20164;-79
2021/03/23 04:23:38;;;;;;;0.73;0.60;;;17.20;44.90;;;;;;4999771;28;20614;-79
2021/03/23 04:26:05;;;;;;;1.63;0.73;;;17.20;45.00;;;;;;5000621;28;20160;-80
2021/03/23 04:28:31;;;;;;;1.67;0.77;;;17.20;44.80;;;;;;4983815;28;20163;-78
2021/03/23 04:30:57;;;;;;;1.20;0.80;;;17.20;44.90;;;;;;5016610;28;20163;-79
2021/03/23 04:33:30;;;;;;;2.13;0.80;;;17.20;45.00;;;;;;5004043;28;20159;-79
2021/03/23 04:35:57;;;;;;;2.10;0.90;;;17.20;45.00;;;;;;5004301;28;20655;-80
2021/03/23 04:38:36;;;;;;;1.10;0.60;;;17.20;44.90;;;;;;4990126;28;20163;-78
2021/03/23 04:41:06;;;;;;;1.60;0.55;;;17.20;44.90;;;;;;4992852;28;20246;-78
2021/03/23 04:43:33;;;;;;;1.25;0.60;;;17.20;44.90;;;;;;4991304;28;20159;-79
2021/03/23 04:46:00;;;;;;;1.10;0.52;;;17.20;44.90;;;;;;5006712;28;20633;-79
2021/03/23 04:48:26;;;;;;;1.30;0.60;;;17.20;44.90;;;;;;4990502;28;20317;-78
2021/03/23 04:50:53;;;;;;;1.92;0.80;;;17.20;44.70;;;;;;5006458;28;20159;-78
2021/03/23 04:53:25;;;;;;;2.50;0.98;;;17.20;44.90;;;;;;5007417;28;20677;-78
2021/03/23 04:55:52;;;;;;;3.33;0.95;;;17.20;44.80;;;;;;5005959;28;20152;-78
2021/03/23 04:58:20;;;;;;;1.00;0.80;;;17.20;44.90;;;;;;5024307;28;20152;-79
2021/03/23 05:00:45;;;;;;;2.20;0.80;;;17.20;44.60;;;;;;5006403;28;20588;-79
2021/03/23 05:03:20;;;;;;;2.70;0.80;;;17.30;44.70;;;;;;4990201;28;20179;-78
2021/03/23 05:05:51;;;;;;;1.77;0.80;;;17.20;44.60;;;;;;5024574;28;20553;-79
2021/03/23 05:08:19;;;;;;;2.13;0.70;;;17.30;44.20;;;;;;5006019;28;20180;-79
2021/03/23 05:10:45;;;;;;;1.55;0.70;;;17.40;44.10;;;;;;5007198;28;20171;-79
2021/03/23 05:13:14;;;;;;;1.60;0.73;;;17.40;44.10;;;;;;5006393;28;20525;-78
2021/03/23 05:15:40;;;;;;;3.47;1.02;;;17.40;43.90;;;;;;5005879;28;20247;-79
2021/03/23 05:18:06;;;;;;;1.02;0.52;;;17.40;44.10;;;;;;5022581;28;20199;-80
2021/03/23 05:20:31;;;;;;;1.83;0.70;;;17.40;44.10;;;;;;5004206;28;20198;-79
2021/03/23 05:22:57;;;;;;;2.45;0.75;;;17.30;44.20;;;;;;5005143;28;20143;-80
2021/03/23 05:25:23;;;;;;;1.67;0.60;;;17.40;44.10;;;;;;5022038;28;20159;-80
2021/03/23 05:27:49;;;;;;;0.93;0.70;;;17.40;43.90;;;;;;4988539;28;20606;-79
2021/03/23 05:30:17;;;;;;;2.30;0.85;;;17.50;43.70;;;;;;5003706;28;20160;-79
2021/03/23 05:32:45;;;;;;;2.10;0.70;;;17.40;43.90;;;;;;4986974;28;20175;-79
2021/03/23 05:35:14;;;;;;;1.33;0.70;;;17.50;43.80;;;;;;5021328;28;20160;-78
2021/03/23 05:37:41;;;;;;;0.93;0.70;;;17.50;43.50;;;;;;5003967;28;20171;-79
2021/03/23 05:40:07;;;;;;;1.92;0.80;;;17.50;43.70;;;;;;5003083;28;20214;-80
2021/03/23 05:42:44;;;;;;;1.63;0.60;;;17.50;43.60;;;;;;5003276;28;20164;-79
2021/03/23 05:45:33;;;;;;;0.95;0.50;;;17.50;43.30;;;;;;5003706;28;20207;-79
2021/03/23 05:48:13;;;;;;;1.25;0.60;;;17.60;43.40;;;;;;5003013;28;20151;-80
2021/03/23 05:50:39;;;;;;;1.48;0.65;;;17.60;43.30;;;;;;5002771;28;20573;-79
2021/03/23 05:53:38;;;;;;;0.90;0.60;;;17.60;43.40;;;;;;5003428;28;20171;-79
2021/03/23 05:56:04;;;;;;;0.60;0.60;;;17.60;43.30;;;;;;5002263;28;20199;-79
2021/03/23 05:58:35;;;;;;;2.83;0.70;;;17.60;43.00;;;;;;5002218;28;20160;-80
2021/03/23 06:01:11;;;;;;;1.58;0.70;;;17.60;43.20;;;;;;5002927;28;20631;-80
2021/03/23 06:03:43;;;;;;;1.08;0.52;;;17.60;43.20;;;;;;5003859;28;20200;-79
2021/03/23 06:06:38;;;;;;;1.35;0.68;;;17.60;42.90;;;;;;5002028;28;20221;-79
2021/03/23 06:09:04;;;;;;;1.38;0.70;;;17.60;43.20;;;;;;5019982;28;20183;-78
2021/03/23 06:11:38;;;;;;;1.92;0.70;;;17.50;43.30;;;;;;5002053;28;20171;-80
2021/03/23 06:14:34;;;;;;;1.20;0.63;;;17.60;43.30;;;;;;5019582;28;20147;-79
2021/03/23 06:17:22;;;;;;;2.10;0.70;;;17.60;43.00;;;;;;4910472;29;20253;-80
2021/03/23 06:20:12;;;;;;;1.33;0.70;;;17.60;43.00;;;;;;4910050;29;20290;-81
2021/03/23 06:22:39;;;;;;;1.13;0.52;;;17.70;42.70;;;;;;4907334;29;20217;-80
2021/03/23 06:25:45;;;;;;;2.10;0.68;;;17.70;43.00;;;;;;4919799;29;20170;-80
2021/03/23 06:28:53;;;;;;;1.02;0.73;;;17.70;42.90;;;;;;4911584;29;20246;-81
2021/03/23 06:32:09;;;;;;;1.15;0.68;;;17.60;42.80;;;;;;4907083;29;20198;-81
2021/03/23 06:34:36;;;;;;;1.00;0.70;;;17.70;42.60;;;;;;4914454;29;20238;-81
2021/03/23 06:37:21;;;;;;;2.83;0.52;;;17.70;42.50;;;;;;4887984;29;20215;-81
2021/03/23 06:39:48;;;;;;;2.47;0.73;;;17.80;42.20;;;;;;4888951;29;20278;-80
2021/03/23 06:42:28;;;;;;;2.20;0.55;;;17.80;42.40;;;;;;4903126;29;20174;-80
2021/03/23 06:45:03;;;;;;;1.65;0.60;;;17.90;42.30;;;;;;4904716;29;20163;-80
2021/03/23 06:47:35;;;;;;;2.20;0.73;;;17.80;42.30;;;;;;4904379;29;20190;-81
2021/03/23 06:50:24;;;;;;;1.73;0.55;;;17.80;42.30;;;;;;4888218;29;20615;-80
2021/03/23 06:53:19;;;;;;;1.80;0.73;;;17.80;42.30;;;;;;4929786;28;20187;-81
2021/03/23 06:55:46;;;;;;;0.68;0.63;;;17.80;42.20;;;;;;5017008;28;20171;-81
2021/03/23 06:58:32;;;;;;;1.33;0.77;;;17.80;42.30;;;;;;4999669;28;20156;-80
2021/03/23 07:01:21;;;;;;;0.50;0.50;;;17.90;42.60;;;;;;4982856;28;20199;-81
2021/03/23 07:03:52;;;;;;;1.42;0.70;;;17.90;42.70;;;;;;4999508;28;20204;-81
2021/03/23 07:06:31;;;;;;;0.98;0.60;;;17.80;42.70;;;;;;5017094;28;20179;-81
2021/03/23 07:09:20;;;;;;;2.25;0.90;;;17.80;42.70;;;;;;4999240;28;20245;-80
2021/03/23 07:11:57;;;;;;;2.78;0.80;;;17.80;42.60;;;;;;4984158;28;20253;-80
2021/03/23 07:14:28;;;;;;;2.05;0.60;;;17.80;42.60;;;;;;4983406;28;20611;-80
2021/03/23 07:17:23;;;;;;;1.63;0.63;;;17.90;42.50;;;;;;4999996;28;20218;-80
2021/03/23 07:20:08;;;;;;;0.85;0.63;;;17.90;42.50;;;;;;4962546;28;20208;-80
2021/03/23 07:22:46;;;;;;;1.85;0.80;;;17.90;42.30;;;;;;4947866;28;20192;-80
2021/03/23 07:25:31;;;;;;;1.98;0.73;;;17.80;42.40;;;;;;4978543;28;20172;-80
2021/03/23 07:28:19;;;;;;;1.58;0.82;;;17.90;42.10;;;;;;4958239;29;20715;-80
2021/03/23 07:30:46;;;;;;;0.65;0.65;;;17.90;42.00;;;;;;4978458;28;20267;-80
2021/03/23 07:33:19;;;;;;;1.48;0.80;;;17.90;42.10;;;;;;4944567;28;20196;-80
2021/03/23 07:35:46;;;;;;;0.50;0.50;;;18.00;41.90;;;;;;4945859;28;20182;-80
2021/03/23 07:38:45;;;;;;;1.80;0.50;;;18.00;42.00;;;;;;4961815;28;20188;-79
2021/03/23 07:41:23;;;;;;;1.15;0.85;;;18.00;41.90;;;;;;4976866;28;20223;-80
2021/03/23 07:44:17;;;;;;;1.40;0.50;;;18.00;41.80;;;;;;4961322;28;20542;-79
2021/03/23 07:46:44;;;;;;;1.00;0.50;;;18.10;41.70;;;;;;4960771;28;20644;-79
2021/03/23 07:49:10;;;;;;;2.47;0.57;;;18.00;41.70;;;;;;4945844;28;20172;-81
2021/03/23 07:51:45;;;;;;;1.40;0.65;;;18.00;41.70;;;;;;4977740;28;20165;-79
2021/03/23 07:54:24;;;;;;;1.42;0.70;;;18.00;41.80;;;;;;4962064;28;20171;-80
2021/03/23 07:56:49;;;;;;;1.70;0.55;;;18.00;41.80;;;;;;4969673;28;20179;-79
2021/03/23 07:59:19;;;;;;;1.27;0.60;;;18.00;41.70;;;;;;5019535;28;20681;-80
2021/03/23 08:02:01;;;;;;;1.00;0.57;;;18.00;41.60;;;;;;5002236;28;20159;-80
2021/03/23 08:04:45;;;;;;;0.95;0.57;;;18.00;41.60;;;;;;5003952;28;20668;-80
2021/03/23 08:07:17;;;;;;;1.48;0.60;;;18.00;41.30;;;;;;5023451;28;20158;-81
2021/03/23 08:09:52;;;;;;;1.02;0.60;;;18.00;41.50;;;;;;5006388;28;20645;-80
2021/03/23 08:12:25;;;;;;;1.27;0.70;;;18.00;41.40;;;;;;5006088;28;20197;-80
2021/03/23 08:15:03;;;;;;;1.02;0.80;;;18.10;41.30;;;;;;5024110;28;20167;-80
2021/03/23 08:17:47;;;;;;;1.00;0.68;;;18.10;41.20;;;;;;5006989;28;20227;-80
2021/03/23 08:20:34;;;;;;;1.50;0.60;;;18.10;41.10;;;;;;5024339;28;20709;-80
2021/03/23 08:23:38;;;;;;;1.48;0.77;;;18.10;41.30;;;;;;5007882;28;20155;-80
2021/03/23 08:26:21;;;;;;;0.75;0.50;;;18.10;41.10;;;;;;5024689;28;20190;-79
2021/03/23 08:29:19;;;;;;;1.38;0.70;;;18.20;41.10;;;;;;5006475;28;20163;-80
2021/03/23 08:32:07;;;;;;;0.77;0.70;;;18.10;41.10;;;;;;5024651;28;20244;-80
2021/03/23 08:35:09;;;;;;;1.08;0.70;;;18.10;40.90;;;;;;5007171;28;20163;-80
2021/03/23 08:37:41;;;;;;;0.93;0.50;;;18.20;40.80;;;;;;5019037;28;20234;-80
2021/03/23 08:40:12;;;;;;;0.73;0.65;;;18.10;41.20;;;;;;5018148;28;20195;-79
2021/03/23 08:42:39;;;;;;;1.63;0.88;;;18.20;40.70;;;;;;5018063;28;20681;-82
2021/03/23 08:45:27;;;;;;;1.83;0.82;;;18.30;40.70;;;;;;5000947;28;20171;-80
2021/03/23 08:48:25;;;;;;;0.80;0.60;;;18.20;41.00;;;;;;5017851;28;20619;-80
2021/03/23 08:51:01;;;;;;;2.15;0.70;;;18.20;40.80;;;;;;4938365;29;20215;-81
2021/03/23 08:53:34;;;;;;;1.40;0.68;;;18.20;40.80;;;;;;4921546;29;20209;-80
2021/03/23 08:56:03;;;;;;;2.47;0.65;;;18.20;40.70;;;;;;4938204;29;20185;-81
2021/03/23 08:58:39;;;;;;;0.88;0.55;;;18.20;40.70;;;;;;4938269;29;20514;-80
2021/03/23 09:01:29;;;;;;;1.33;0.70;;;18.30;40.70;;;;;;4937040;29;20272;-80
2021/03/23 09:04:23;;;;;;;3.33;0.75;;;18.30;40.60;;;;;;4936572;29;20169;-81
2021/03/23 09:07:07;;;;;;;0.88;0.50;;;18.30;40.60;;;;;;4937750;29;20154;-80
2021/03/23 09:09:44;;;;;;;3.53;0.63;;;18.20;40.60;;;;;;4937347;29;20189;-80
2021/03/23 09:12:32;;;;;;;2.05;0.65;;;18.20;40.60;;;;;;4936549;29;20166;-80
2021/03/23 09:15:04;;;;;;;2.63;0.80;;;18.20;40.80;;;;;;4936972;29;20186;-81
2021/03/23 09:18:09;;;;;;;1.42;0.88;;;18.20;40.70;;;;;;4937868;29;20234;-80
2021/03/23 09:20:36;;;;;;;2.40;0.88;;;18.30;40.30;;;;;;4885272;29;20725;-80
2021/03/23 09:23:21;;;;;;;1.40;0.68;;;18.40;40.40;;;;;;4884330;29;20176;-81
2021/03/23 09:26:10;;;;;;;1.00;0.80;;;18.30;40.40;;;;;;4884259;29;20188;-79
2021/03/23 09:28:52;;;;;;;1.35;0.73;;;18.30;40.40;;;;;;4928331;29;20193;-79
2021/03/23 09:31:18;;;;;;;0.68;0.60;;;18.30;40.30;;;;;;4927904;29;20178;-80
2021/03/23 09:33:53;;;;;;;1.02;0.60;;;18.30;40.70;;;;;;4941689;29;20701;-79
2021/03/23 09:36:41;;;;;;;2.97;0.60;;;18.20;40.70;;;;;;4941294;29;20174;-81
2021/03/23 09:39:16;;;;;;;1.05;0.70;;;18.20;40.80;;;;;;4926560;29;20280;-80
2021/03/23 09:41:53;;;;;;;0.77;0.63;;;18.20;40.70;;;;;;4942863;29;20170;-80
2021/03/23 09:44:22;;;;;;;1.13;0.60;;;18.20;40.50;;;;;;4926129;29;20252;-80
2021/03/23 09:46:54;;;;;;;0.63;0.57;;;18.20;40.60;;;;;;4939304;29;20154;-80
2021/03/23 09:49:21;;;;;;;1.02;0.70;;;18.30;40.30;;;;;;4939291;29;20174;-80
2021/03/23 09:52:02;;;;;;;2.58;0.73;;;18.30;40.30;;;;;;4923861;29;20213;-80
2021/03/23 09:54:39;;;;;;;1.92;0.70;;;18.40;40.30;;;;;;4939892;29;20270;-80
2021/03/23 09:57:22;;;;;;;2.40;0.70;;;18.30;40.40;;;;;;4971538;28;20209;-80
2021/03/23 09:59:52;;;;;;;1.20;0.60;;;18.30;40.20;;;;;;5002172;28;20199;-80
2021/03/23 10:02:17;;;;;;;1.67;0.75;;;18.30;40.20;;;;;;5001225;28;20181;-79
2021/03/23 10:04:44;;;;;;;0.90;0.80;;;18.30;40.30;;;;;;5018136;28;20534;-80
2021/03/23 10:07:39;;;;;;;1.23;0.75;;;18.30;40.30;;;;;;4982650;28;20164;-79
2021/03/23 10:10:33;;;;;;;1.13;0.60;;;18.40;40.10;;;;;;4981503;28;20168;-80
2021/03/23 10:13:30;;;;;;;1.92;1.00;;;18.40;40.00;;;;;;4999492;28;20171;-81
2021/03/23 10:15:56;;;;;;;2.70;0.90;;;18.30;40.30;;;;;;4999080;28;20175;-82
2021/03/23 10:18:52;;;;;;;1.30;0.70;;;18.20;40.60;;;;;;5001550;28;20179;-81
2021/03/23 10:21:26;;;;;;;1.33;0.70;;;18.20;39.90;;;;;;5003073;28;20176;-81
2021/03/23 10:23:58;;;;;;;1.85;0.82;;;18.30;40.30;;;;;;5001109;28;20187;-81
2021/03/23 10:26:29;;;;;;;1.08;0.70;;;18.20;40.30;;;;;;5000867;28;20618;-82
2021/03/23 10:28:56;;;;;;;0.70;0.57;;;18.20;40.50;;;;;;4983272;28;20242;-82
2021/03/23 10:31:36;;;;;;;1.50;0.70;;;18.10;40.70;;;;;;5015328;28;20160;-82
2021/03/23 10:34:14;;;;;;;0.93;0.75;;;18.10;40.50;;;;;;4999234;28;20183;-82
2021/03/23 10:37:05;;;;;;;0.80;0.60;;;18.20;40.30;;;;;;5000031;28;20205;-82
2021/03/23 10:39:42;;;;;;;1.50;0.70;;;18.30;40.30;;;;;;5002763;28;20175;-82
2021/03/23 10:42:34;;;;;;;1.35;0.70;;;18.30;40.00;;;;;;5003265;28;20163;-82
2021/03/23 10:45:24;;;;;;;2.58;0.82;;;18.40;40.10;;;;;;5006465;28;20178;-82
2021/03/23 10:48:25;;;;;;;2.55;0.70;;;18.40;40.00;;;;;;5020022;28;20155;-83
2021/03/23 10:51:29;;;;;;;1.80;0.60;;;18.30;40.00;;;;;;4990859;28;20187;-82
2021/03/23 10:54:26;;;;;;;1.00;0.60;;;18.30;40.00;;;;;;4995059;28;20542;-83
2021/03/23 10:57:09;;;;;;;1.40;0.70;;;18.30;40.00;;;;;;5031305;28;20163;-82
2021/03/23 10:59:35;;;;;;;1.92;0.60;;;18.40;39.90;;;;;;5013277;28;20198;-82
2021/03/23 11:02:30;;;;;;;1.30;0.70;;;18.30;40.00;;;;;;4990949;28;20163;-82
2021/03/23 11:05:11;;;;;;;0.60;0.55;;;18.30;39.90;;;;;;5000363;28;20519;-83
2021/03/23 11:07:50;;;;;;;0.55;0.55;;;18.40;39.90;;;;;;5001717;28;20151;-83
2021/03/23 11:10:19;;;;;;;0.80;0.60;;;18.30;40.00;;;;;;5003853;28;20195;-83
2021/03/23 11:12:49;;;;;;;1.27;0.85;;;18.30;39.70;;;;;;4998436;28;20164;-83
2021/03/23 11:15:15;;;;;;;0.73;0.63;;;18.40;39.70;;;;;;5015363;28;20151;-83
2021/03/23 11:17:48;;;;;;;1.55;0.68;;;18.30;40.00;;;;;;5016478;28;20219;-82
2021/03/23 11:20:35;;;;;;;0.70;0.70;;;18.30;39.80;;;;;;5001606;28;20550;-84
2021/03/23 11:23:30;;;;;;;2.60;0.73;;;18.30;40.00;;;;;;5002058;28;20169;-83
2021/03/23 11:25:59;;;;;;;1.48;0.75;;;18.30;39.70;;;;;;5021961;28;20153;-83
2021/03/23 11:28:30;;;;;;;0.55;0.52;;;18.30;39.90;;;;;;5003673;28;20167;-83
2021/03/23 11:30:59;;;;;;;0.52;0.50;;;18.30;39.90;;;;;;4999274;28;20177;-83
2021/03/23 11:33:25;;;;;;;1.30;0.60;;;18.30;39.80;;;;;;5014309;28;20155;-82
2021/03/23 11:35:51;;;;;;;0.82;0.70;;;18.30;39.80;;;;;;5018527;28;20175;-83
2021/03/23 11:38:28;;;;;;;1.00;0.70;;;18.30;39.70;;;;;;5003515;28;20172;-84
2021/03/23 11:40:55;;;;;;;0.80;0.60;;;18.30;39.60;;;;;;5005051;28;20195;-83
2021/03/23 11:43:39;;;;;;;0.85;0.65;;;18.30;39.50;;;;;;5003385;28;20164;-83
2021/03/23 11:46:11;;;;;;;1.08;0.70;;;18.40;39.60;;;;;;5004934;28;20175;-83
2021/03/23 11:48:47;;;;;;;1.27;0.50;;;18.40;39.50;;;;;;5000883;28;20171;-83
2021/03/23 11:51:15;;;;;;;1.23;0.73;;;18.40;39.60;;;;;;5020309;28;20134;-83
2021/03/23 11:56:17;;;;;;;0.77;0.60;;;18.30;39.50;;;;;;4927509;23;20270;-83
2021/03/23 11:58:52;;;;;;;1.38;0.77;;;18.30;39.60;;;;;;5022056;28;20171;-83
2021/03/23 12:01:24;;;;;;;1.05;0.70;;;18.30;39.20;;;;;;5022715;28;20659;-83
2021/03/23 12:03:52;;;;;;;1.00;0.80;;;18.40;39.30;;;;;;5022066;28;20279;-83
2021/03/23 12:06:22;;;;;;;0.65;0.60;;;18.40;39.20;;;;;;5022177;28;20617;-82
2021/03/23 12:08:58;;;;;;;1.42;0.63;;;18.40;39.30;;;;;;5023497;28;20619;-83
2021/03/23 12:11:56;;;;;;;0.70;0.60;;;18.40;39.20;;;;;;5039612;28;20208;-83
2021/03/23 12:14:50;;;;;;;0.75;0.70;;;18.40;39.30;;;;;;5036566;28;20174;-83
2021/03/23 12:17:37;;;;;;;0.50;0.50;;;18.40;39.30;;;;;;5040154;28;20242;-84
2021/03/23 12:20:32;;;;;;;1.35;0.68;;;18.50;39.10;;;;;;5023156;28;20202;-83
2021/03/23 12:23:19;;;;;;;0.93;0.70;;;18.40;39.20;;;;;;5018389;28;20163;-83
2021/03/23 12:26:06;;;;;;;1.05;0.70;;;18.40;39.30;;;;;;5035598;28;20222;-82
2021/03/23 12:28:54;;;;;;;1.33;0.70;;;18.40;39.30;;;;;;5024003;28;20165;-83
2021/03/23 12:31:40;;;;;;;0.82;0.55;;;18.40;39.30;;;;;;5039975;28;20200;-83
2021/03/23 12:34:23;;;;;;;1.08;0.90;;;18.40;39.20;;;;;;5034946;28;20163;-83
2021/03/23 12:36:49;;;;;;;1.10;0.77;;;18.40;39.20;;;;;;5036831;28;20159;-83
2021/03/23 12:39:17;;;;;;;0.70;0.70;;;18.40;39.20;;;;;;5020514;28;20206;-83
2021/03/23 12:41:44;;;;;;;0.82;0.63;;;18.30;39.20;;;;;;5019584;28;20170;-83
2021/03/23 12:44:14;;;;;;;1.05;0.60;;;18.40;39.20;;;;;;5031277;28;20159;-83
2021/03/23 12:46:40;;;;;;;0.95;0.70;;;18.40;39.20;;;;;;5017630;28;20159;-82
2021/03/23 12:49:07;;;;;;;0.80;0.80;;;18.40;39.10;;;;;;4998794;28;20167;-82
2021/03/23 12:51:37;;;;;;;1.65;0.70;;;18.20;39.10;;;;;;4998788;28;20173;-82
2021/03/23 12:54:04;;;;;;;0.70;0.65;;;18.30;39.10;;;;;;5018174;28;20170;-82
2021/03/23 12:56:34;;;;;;;0.47;0.47;;;18.30;39.20;;;;;;5019810;28;20201;-83
2021/03/23 12:59:00;;;;;;;0.68;0.68;;;18.30;39.20;;;;;;5020433;28;20187;-82
2021/03/23 13:01:33;;;;;;;0.75;0.55;;;18.40;39.10;;;;;;5004611;28;20196;-82
2021/03/23 13:03:59;;;;;;;0.80;0.60;;;18.40;39.00;;;;;;5019619;28;20186;-82
2021/03/23 13:06:27;;;;;;;0.52;0.52;;;18.40;38.90;;;;;;5005048;28;20174;-82
2021/03/23 13:08:54;;;;;;;0.75;0.70;;;18.40;38.90;;;;;;5022702;28;20147;-82
2021/03/23 13:11:25;;;;;;;0.60;0.50;;;18.30;39.10;;;;;;5007375;28;20175;-82
2021/03/23 13:14:03;;;;;;;0.60;0.60;;;18.40;39.00;;;;;;5040892;28;20147;-82
2021/03/23 13:16:32;;;;;;;1.08;0.75;;;18.40;39.00;;;;;;5023303;28;20169;-82
2021/03/23 13:18:58;;;;;;;2.45;0.70;;;18.40;39.00;;;;;;5008459;28;20202;-82
2021/03/23 13:21:31;;;;;;;0.70;0.70;;;18.30;39.00;;;;;;5024642;28;20653;-83
2021/03/23 13:24:04;;;;;;;2.20;0.60;;;18.40;39.10;;;;;;5007215;28;20170;-82
2021/03/23 13:26:33;;;;;;;0.85;0.65;;;18.40;39.10;;;;;;5015566;28;20290;-83